createdAt,value
2019-05-06T00:00:20.570Z,2.80
2019-05-06T00:02:26.956Z,2.72
2019-05-06T00:04:34.109Z,3.05
2019-05-06T00:06:43.883Z,2.87
2019-05-06T00:08:49.836Z,2.80
2019-05-06T00:10:56.315Z,2.70
2019-05-06T00:13:04.610Z,3.47
2019-05-06T00:15:11.214Z,3.58
2019-05-06T00:17:17.751Z,3.12
2019-05-06T00:19:24.680Z,3.00
2019-05-06T00:21:32.157Z,2.75
2019-05-06T00:23:45.970Z,2.85
2019-05-06T00:25:53.546Z,3.62
2019-05-06T00:28:19.552Z,3.65
2019-05-06T00:30:26.004Z,3.83
2019-05-06T00:32:34.670Z,3.87
2019-05-06T00:34:40.457Z,3.50
2019-05-06T00:36:46.915Z,4.12
2019-05-06T00:38:54.949Z,3.80
2019-05-06T00:41:04.026Z,4.10
2019-05-06T00:43:11.579Z,4.10
2019-05-06T00:45:18.036Z,3.77
2019-05-06T00:47:25.235Z,3.87
2019-05-06T00:49:31.650Z,3.70
2019-05-06T00:51:38.039Z,3.50
2019-05-06T00:53:49.932Z,3.33
2019-05-06T00:55:56.333Z,3.55
2019-05-06T00:58:04.061Z,3.33
2019-05-06T01:00:13.466Z,3.35
2019-05-06T01:02:19.507Z,3.50
2019-05-06T01:04:25.877Z,3.45
2019-05-06T01:06:34.481Z,3.55
2019-05-06T01:08:40.628Z,3.37
2019-05-06T01:10:47.756Z,4.05
2019-05-06T01:13:04.082Z,3.47
2019-05-06T01:15:23.789Z,2.90
2019-05-06T01:17:34.678Z,4.05
2019-05-06T01:19:41.312Z,3.60
2019-05-06T01:21:47.861Z,3.25
2019-05-06T01:23:54.609Z,4.20
2019-05-06T01:26:01.058Z,3.05
2019-05-06T01:28:07.474Z,4.03
2019-05-06T01:30:15.536Z,3.50
2019-05-06T01:32:23.637Z,3.52
2019-05-06T01:34:30.220Z,4.30
2019-05-06T01:36:36.595Z,3.83
2019-05-06T01:38:44.758Z,3.20
2019-05-06T01:41:03.874Z,3.85
2019-05-06T01:43:14.539Z,3.95
2019-05-06T01:45:21.105Z,3.75
2019-05-06T01:47:27.923Z,3.87
2019-05-06T01:49:34.290Z,3.80
2019-05-06T01:51:40.665Z,3.98
2019-05-06T01:53:47.314Z,3.52
2019-05-06T01:55:54.596Z,3.22
2019-05-06T01:58:01.066Z,3.45
2019-05-06T02:00:09.348Z,3.47
2019-05-06T02:02:15.865Z,3.30
2019-05-06T02:04:24.296Z,3.75
2019-05-06T02:06:30.505Z,3.77
2019-05-06T02:08:36.896Z,3.72
2019-05-06T02:10:43.606Z,3.55
2019-05-06T02:12:50.260Z,3.22
2019-05-06T02:14:56.646Z,3.35
2019-05-06T02:17:03.632Z,3.52
2019-05-06T02:19:10.366Z,3.05
2019-05-06T02:21:28.775Z,3.30
2019-05-06T02:23:39.556Z,3.10
2019-05-06T02:25:47.659Z,3.00
2019-05-06T02:27:54.239Z,3.70
2019-05-06T02:30:05.474Z,3.45
2019-05-06T02:32:25.252Z,3.35
2019-05-06T02:34:36.458Z,2.80
2019-05-06T02:36:45.401Z,3.45
2019-05-06T02:38:54.790Z,2.72
2019-05-06T02:40:58.895Z,3.58
2019-05-06T02:43:05.340Z,3.27
2019-05-06T02:45:12.726Z,3.52
2019-05-06T02:47:23.072Z,2.98
2019-05-06T02:49:36.478Z,3.12
2019-05-06T02:51:44.202Z,2.80
2019-05-06T02:53:53.792Z,3.00
2019-05-06T02:55:59.062Z,3.20
2019-05-06T02:58:06.529Z,2.90
2019-05-06T03:00:18.158Z,2.92
2019-05-06T03:02:37.963Z,3.55
2019-05-06T03:04:33.384Z,2.92
2019-05-06T03:06:40.076Z,2.90
2019-05-06T03:08:46.438Z,3.20
2019-05-06T03:10:53.570Z,3.20
2019-05-06T03:13:02.886Z,3.02
2019-05-06T03:15:08.749Z,3.02
2019-05-06T03:17:15.146Z,3.70
2019-05-06T03:19:24.072Z,3.40
2019-05-06T03:21:46.741Z,3.45
2019-05-06T03:23:54.784Z,3.80
2019-05-06T03:26:03.751Z,3.80
2019-05-06T03:28:09.648Z,3.03
2019-05-06T03:30:17.145Z,3.77
2019-05-06T03:32:30.341Z,3.50
2019-05-06T03:34:55.259Z,3.40
2019-05-06T03:36:47.390Z,3.02
2019-05-06T03:38:48.310Z,2.83
2019-05-06T03:40:54.689Z,3.12
2019-05-06T03:43:02.794Z,3.62
2019-05-06T03:45:13.136Z,4.10
2019-05-06T03:47:23.467Z,4.03
2019-05-06T03:49:33.820Z,4.37
2019-05-06T03:51:42.758Z,3.55
2019-05-06T03:53:48.348Z,3.67
2019-05-06T03:55:56.663Z,3.40
2019-05-06T03:58:04.400Z,3.42
2019-05-06T04:00:15.982Z,3.58
2019-05-06T04:02:24.050Z,3.62
2019-05-06T04:04:33.103Z,3.92
2019-05-06T04:06:43.599Z,3.05
2019-05-06T04:08:52.857Z,3.40
2019-05-06T04:11:02.960Z,3.35
2019-05-06T04:15:19.330Z,5.00
2019-05-06T04:17:37.301Z,4.90
2019-05-06T04:19:53.467Z,2.90
2019-05-06T04:22:23.382Z,3.92
2019-05-06T04:24:53.939Z,3.35
2019-05-06T04:27:34.757Z,3.45
2019-05-06T04:29:42.868Z,3.47
2019-05-06T04:31:53.698Z,2.47
2019-05-06T04:34:09.889Z,2.65
2019-05-06T04:36:07.399Z,3.05
2019-05-06T04:38:14.285Z,3.00
2019-05-06T04:40:23.895Z,3.05
2019-05-06T04:42:30.405Z,3.45
2019-05-06T04:44:37.950Z,4.70
2019-05-06T04:46:44.660Z,2.90
2019-05-06T04:48:53.606Z,3.22
2019-05-06T04:50:59.356Z,3.27
2019-05-06T04:53:06.105Z,3.00
2019-05-06T04:55:14.219Z,4.05
2019-05-06T04:57:23.872Z,3.40
2019-05-06T04:59:29.352Z,3.03
2019-05-06T05:01:35.871Z,2.85
2019-05-06T05:03:42.865Z,2.62
2019-05-06T05:05:49.519Z,3.85
2019-05-06T05:07:56.097Z,4.40
2019-05-06T05:10:07.684Z,2.67
2019-05-06T05:12:19.702Z,4.90
2019-05-06T05:14:33.704Z,3.85
2019-05-06T05:16:42.157Z,7.03
2019-05-06T05:18:50.437Z,5.17
2019-05-06T05:20:57.011Z,3.50
2019-05-06T05:23:03.477Z,2.75
2019-05-06T05:25:12.229Z,3.45
2019-05-06T05:27:18.722Z,2.70
2019-05-06T05:29:25.250Z,3.98
2019-05-06T05:31:33.236Z,3.10
2019-05-06T05:33:42.153Z,3.27
2019-05-06T05:35:47.955Z,3.58
2019-05-06T05:37:54.668Z,3.50
2019-05-06T05:40:03.027Z,5.75
2019-05-06T05:42:12.359Z,4.22
2019-05-06T05:44:22.645Z,6.78
2019-05-06T05:46:28.736Z,6.22
2019-05-06T05:48:48.523Z,6.92
2019-05-06T05:50:55.482Z,3.90
2019-05-06T05:53:03.067Z,3.20
2019-05-06T05:55:09.655Z,3.35
2019-05-06T05:57:17.579Z,2.80
2019-05-06T05:59:25.169Z,4.17
2019-05-06T06:01:32.621Z,5.50
2019-05-06T06:03:39.358Z,5.37
2019-05-06T06:05:45.810Z,2.65
2019-05-06T06:07:53.063Z,5.45
2019-05-06T06:10:02.674Z,6.65
2019-05-06T06:12:12.036Z,3.65
2019-05-06T06:14:33.234Z,4.17
2019-05-06T06:16:42.277Z,3.62
2019-05-06T06:19:07.123Z,3.20
2019-05-06T06:21:21.992Z,6.92
2019-05-06T06:23:26.096Z,2.62
2019-05-06T06:25:33.574Z,3.93
2019-05-06T06:27:52.310Z,3.10
2019-05-06T06:29:58.930Z,3.20
2019-05-06T06:32:22.999Z,2.70
2019-05-06T06:34:42.560Z,3.00
2019-05-06T06:37:02.696Z,2.37
2019-05-06T06:39:16.825Z,3.05
2019-05-06T06:41:23.344Z,3.92
2019-05-06T06:43:29.830Z,2.42
2019-05-06T06:45:36.678Z,2.60
2019-05-06T06:47:43.074Z,3.62
2019-05-06T06:49:49.543Z,2.77
2019-05-06T06:51:55.913Z,2.47
2019-05-06T06:54:02.651Z,2.98
2019-05-06T06:56:21.898Z,2.67
2019-05-06T06:58:32.327Z,3.10
2019-05-06T07:00:38.554Z,3.33
2019-05-06T07:02:49.745Z,3.25
2019-05-06T07:05:02.387Z,2.55
2019-05-06T07:07:09.259Z,3.87
2019-05-06T07:09:15.737Z,3.85
2019-05-06T07:11:22.613Z,2.87
2019-05-06T07:13:29.075Z,3.42
2019-05-06T07:15:35.506Z,2.58
2019-05-06T07:17:42.107Z,3.15
2019-05-06T07:19:50.146Z,2.72
2019-05-06T07:21:58.400Z,2.63
2019-05-06T07:24:04.870Z,3.62
2019-05-06T07:26:13.967Z,2.92
2019-05-06T07:28:22.345Z,2.43
2019-05-06T07:30:32.934Z,2.50
2019-05-06T07:32:39.387Z,2.80
2019-05-06T07:34:45.798Z,2.65
2019-05-06T07:36:52.654Z,2.20
2019-05-06T07:38:59.173Z,3.52
2019-05-06T07:41:14.447Z,2.75
2019-05-06T07:43:36.412Z,2.55
2019-05-06T07:45:47.124Z,3.10
2019-05-06T07:47:55.249Z,3.90
2019-05-06T07:50:02.392Z,4.42
2019-05-06T07:52:09.204Z,2.17
2019-05-06T07:54:15.598Z,2.30
2019-05-06T07:56:22.577Z,3.00
2019-05-06T07:58:29.181Z,2.83
2019-05-06T08:00:36.102Z,3.27
2019-05-06T08:02:42.635Z,3.70
2019-05-06T08:04:49.112Z,2.00
2019-05-06T08:06:55.523Z,2.17
2019-05-06T08:09:03.189Z,2.67
2019-05-06T08:11:12.362Z,2.90
2019-05-06T08:13:19.196Z,4.80
2019-05-06T08:15:25.646Z,2.58
2019-05-06T08:17:33.831Z,3.70
2019-05-06T08:19:42.268Z,2.50
2019-05-06T08:21:52.062Z,2.25
2019-05-06T08:23:58.528Z,2.10
2019-05-06T08:26:12.467Z,1.90
2019-05-06T08:28:13.416Z,1.73
2019-05-06T08:30:20.109Z,1.67
2019-05-06T08:32:26.581Z,2.15
2019-05-06T08:34:34.161Z,2.20
2019-05-06T08:36:42.595Z,1.50
2019-05-06T08:38:58.809Z,2.15
2019-05-06T08:41:05.367Z,1.62
2019-05-06T08:43:13.681Z,1.85
2019-05-06T08:45:21.968Z,1.50
2019-05-06T08:47:28.366Z,1.70
2019-05-06T08:49:36.381Z,1.85
2019-05-06T08:52:02.590Z,2.00
2019-05-06T08:54:22.566Z,2.00
2019-05-06T08:56:28.386Z,1.75
2019-05-06T08:58:47.365Z,2.30
2019-05-06T09:03:09.384Z,2.72
2019-05-06T09:05:15.871Z,2.12
2019-05-06T09:07:23.911Z,1.72
2019-05-06T09:09:32.488Z,4.13
2019-05-06T09:11:39.290Z,2.92
2019-05-06T09:13:45.672Z,2.33
2019-05-06T09:15:52.966Z,3.30
2019-05-06T09:17:59.370Z,2.70
2019-05-06T09:20:07.167Z,4.87
2019-05-06T09:22:13.627Z,2.90
2019-05-06T09:24:20.101Z,3.30
2019-05-06T09:26:43.283Z,2.20
2019-05-06T09:28:53.107Z,2.47
2019-05-06T09:33:09.327Z,1.87
2019-05-06T09:35:15.788Z,3.65
2019-05-06T09:37:24.079Z,3.08
2019-05-06T09:39:32.240Z,2.80
2019-05-06T09:41:39.222Z,2.60
2019-05-06T09:43:45.682Z,4.10
2019-05-06T09:45:52.945Z,2.00
2019-05-06T09:48:05.451Z,2.55
2019-05-06T09:50:14.652Z,1.55
2019-05-06T09:52:23.193Z,2.52
2019-05-06T09:54:33.693Z,3.50
2019-05-06T09:56:42.772Z,2.30
2019-05-06T09:58:49.408Z,2.30
2019-05-06T10:00:57.451Z,3.80
2019-05-06T10:03:04.577Z,2.02
2019-05-06T10:05:12.010Z,1.60
2019-05-06T10:07:18.543Z,2.85
2019-05-06T10:09:25.147Z,1.77
2019-05-06T10:11:32.853Z,2.40
2019-05-06T10:13:39.552Z,1.82
2019-05-06T10:15:46.049Z,1.60
2019-05-06T10:18:08.133Z,1.87
2019-05-06T10:20:16.081Z,1.60
2019-05-06T10:22:23.344Z,1.52
2019-05-06T10:24:32.254Z,1.45
2019-05-06T10:26:39.730Z,1.27
2019-05-06T10:28:47.911Z,1.43
2019-05-06T10:30:54.425Z,1.50
2019-05-06T10:33:02.472Z,1.30
2019-05-06T10:35:09.902Z,1.90
2019-05-06T10:37:25.683Z,3.00
2019-05-06T10:39:36.646Z,1.57
2019-05-06T10:41:47.657Z,1.60
2019-05-06T10:44:02.969Z,1.50
2019-05-06T10:46:09.629Z,1.47
2019-05-06T10:48:16.114Z,1.67
2019-05-06T10:50:22.996Z,1.40
2019-05-06T10:52:33.212Z,1.20
2019-05-06T10:54:39.261Z,1.40
2019-05-06T10:56:54.602Z,1.60
2019-05-06T10:59:02.282Z,1.60
2019-05-06T11:01:12.771Z,1.50
2019-05-06T11:03:23.778Z,1.60
2019-05-06T11:05:32.398Z,1.70
2019-05-06T11:07:38.359Z,1.60
2019-05-06T11:09:44.781Z,1.32
2019-05-06T11:11:51.155Z,1.35
2019-05-06T11:13:57.567Z,1.40
2019-05-06T11:16:04.083Z,1.30
2019-05-06T11:18:13.264Z,1.40
2019-05-06T11:20:19.018Z,1.57
2019-05-06T11:22:25.388Z,2.65
2019-05-06T11:24:32.627Z,1.62
2019-05-06T11:26:39.275Z,1.52
2019-05-06T11:28:47.362Z,1.70
2019-05-06T11:30:56.420Z,1.70
2019-05-06T11:35:13.252Z,2.37
2019-05-06T11:37:24.033Z,1.37
2019-05-06T11:39:32.139Z,2.08
2019-05-06T11:41:38.756Z,1.40
2019-05-06T11:43:45.221Z,2.00
2019-05-06T11:45:52.130Z,1.60
2019-05-06T11:47:58.950Z,1.65
2019-05-06T11:50:09.306Z,1.50
2019-05-06T11:52:16.785Z,1.60
2019-05-06T11:54:24.508Z,1.50
2019-05-06T11:56:32.701Z,1.47
2019-05-06T12:00:54.274Z,1.70
2019-05-06T12:03:02.352Z,1.27
2019-05-06T12:05:09.259Z,1.33
2019-05-06T12:07:16.281Z,1.67
2019-05-06T12:09:23.970Z,1.32
2019-05-06T12:11:30.378Z,1.30
2019-05-06T12:13:38.248Z,1.85
2019-05-06T12:15:44.819Z,1.32
2019-05-06T12:17:53.304Z,1.27
2019-05-06T12:19:59.297Z,1.73
2019-05-06T12:22:05.677Z,1.87
2019-05-06T12:24:12.314Z,1.20
2019-05-06T12:26:20.290Z,1.47
2019-05-06T12:28:26.665Z,1.40
2019-05-06T12:30:33.073Z,1.62
2019-05-06T12:32:43.176Z,1.90
2019-05-06T12:34:49.270Z,1.20
2019-05-06T12:36:57.316Z,1.30
2019-05-06T12:39:18.413Z,1.50
2019-05-06T12:41:23.993Z,1.50
2019-05-06T12:43:30.173Z,1.82
2019-05-06T12:45:38.274Z,1.30
2019-05-06T12:47:46.367Z,1.50
2019-05-06T12:49:53.325Z,2.53
2019-05-06T12:52:00.081Z,2.00
2019-05-06T12:54:06.488Z,1.90
2019-05-06T12:56:13.039Z,1.75
2019-05-06T12:58:21.068Z,1.70
2019-05-06T13:00:29.416Z,1.67
2019-05-06T13:02:36.047Z,1.82
2019-05-06T13:04:51.332Z,1.80
2019-05-06T13:06:52.215Z,1.90
2019-05-06T13:09:04.154Z,1.65
2019-05-06T13:11:08.630Z,2.08
2019-05-06T13:13:15.015Z,1.77
2019-05-06T13:15:24.482Z,2.00
2019-05-06T13:17:32.897Z,1.70
2019-05-06T13:19:39.392Z,1.77
2019-05-06T13:21:45.865Z,1.57
2019-05-06T13:24:04.661Z,2.08
2019-05-06T13:26:12.670Z,1.62
2019-05-06T13:28:22.458Z,2.17
2019-05-06T13:30:28.629Z,1.77
2019-05-06T13:32:36.644Z,1.22
2019-05-06T13:34:43.126Z,1.60
2019-05-06T13:36:53.027Z,1.10
2019-05-06T13:39:13.479Z,1.30
2019-05-06T13:41:06.451Z,1.50
2019-05-06T13:43:13.219Z,1.50
2019-05-06T13:45:22.037Z,1.00
2019-05-06T13:47:32.151Z,1.30
2019-05-06T13:49:42.998Z,1.55
2019-05-06T13:52:04.520Z,1.47
2019-05-06T13:54:15.780Z,1.35
2019-05-06T13:56:20.269Z,1.10
2019-05-06T13:58:27.442Z,1.12
2019-05-06T14:00:35.722Z,1.30
2019-05-06T14:02:44.011Z,1.37
2019-05-06T14:04:52.721Z,1.42
2019-05-06T14:06:58.765Z,1.75
2019-05-06T14:09:27.185Z,1.60
2019-05-06T14:11:18.737Z,1.22
2019-05-06T14:13:25.155Z,1.10
2019-05-06T14:15:32.644Z,1.07
2019-05-06T14:17:39.056Z,1.22
2019-05-06T14:19:45.472Z,1.00
2019-05-06T14:21:52.422Z,0.98
2019-05-06T14:23:59.052Z,1.70
2019-05-06T14:26:20.109Z,2.00
2019-05-06T14:28:39.984Z,1.00
2019-05-06T14:30:53.749Z,1.42
2019-05-06T14:33:00.162Z,1.30
2019-05-06T14:35:07.830Z,1.57
2019-05-06T14:37:14.283Z,1.57
2019-05-06T14:39:24.865Z,1.30
2019-05-06T14:41:38.008Z,1.52
2019-05-06T14:43:44.408Z,1.60
2019-05-06T14:45:52.801Z,1.52
2019-05-06T14:47:58.907Z,1.93
2019-05-06T14:50:08.249Z,1.40
2019-05-06T14:52:14.728Z,1.50
2019-05-06T14:54:22.120Z,3.35
2019-05-06T14:56:33.229Z,3.77
2019-05-06T14:58:39.697Z,2.10
2019-05-06T15:00:46.085Z,2.00
2019-05-06T15:02:53.301Z,1.98
2019-05-06T15:05:02.737Z,2.10
2019-05-06T15:07:09.448Z,1.75
2019-05-06T15:09:15.895Z,1.85
2019-05-06T15:11:22.823Z,1.67
2019-05-06T15:13:32.003Z,1.98
2019-05-06T15:15:37.763Z,1.50
2019-05-06T15:17:44.244Z,1.70
2019-05-06T15:19:52.563Z,1.80
2019-05-06T15:21:58.874Z,2.37
2019-05-06T15:24:05.427Z,2.10
2019-05-06T15:26:12.331Z,2.10
2019-05-06T15:28:22.600Z,2.10
2019-05-06T15:30:39.580Z,2.00
2019-05-06T15:32:45.970Z,1.20
2019-05-06T15:34:59.713Z,1.55
2019-05-06T15:37:12.979Z,2.40
2019-05-06T15:39:19.041Z,2.77
2019-05-06T15:41:25.438Z,1.90
2019-05-06T15:43:33.358Z,1.87
2019-05-06T15:45:39.802Z,1.72
2019-05-06T15:47:49.168Z,1.75
2019-05-06T15:49:55.758Z,1.77
2019-05-06T15:52:03.603Z,2.10
2019-05-06T15:54:10.475Z,2.40
2019-05-06T15:56:16.876Z,2.37
2019-05-06T15:58:23.337Z,2.15
2019-05-06T16:00:29.798Z,1.77
2019-05-06T16:02:36.267Z,2.20
2019-05-06T16:04:43.051Z,2.80
2019-05-06T16:06:49.431Z,3.20
2019-05-06T16:08:55.979Z,3.05
2019-05-06T16:11:02.970Z,3.40
2019-05-06T16:13:09.633Z,3.02
2019-05-06T16:15:16.409Z,2.90
2019-05-06T16:17:23.850Z,5.42
2019-05-06T16:19:33.061Z,3.33
2019-05-06T16:21:42.162Z,3.17
2019-05-06T16:23:54.707Z,3.20
2019-05-06T16:25:59.463Z,3.33
2019-05-06T16:28:05.927Z,5.72
2019-05-06T16:30:15.205Z,3.98
2019-05-06T16:32:22.075Z,4.50
2019-05-06T16:34:28.498Z,4.03
2019-05-06T16:36:34.950Z,2.95
2019-05-06T16:38:42.819Z,1.77
2019-05-06T16:40:49.380Z,1.92
2019-05-06T16:42:55.921Z,2.42
2019-05-06T16:45:06.781Z,3.40
2019-05-06T16:47:12.337Z,2.87
2019-05-06T16:49:18.792Z,3.37
2019-05-06T16:51:25.171Z,4.00
2019-05-06T16:53:34.821Z,3.55
2019-05-06T16:55:44.065Z,3.17
2019-05-06T16:57:58.067Z,3.95
2019-05-06T17:00:08.919Z,4.45
2019-05-06T17:02:17.005Z,4.20
2019-05-06T17:04:23.324Z,4.37
2019-05-06T17:06:32.963Z,4.80
2019-05-06T17:08:39.566Z,4.47
2019-05-06T17:10:46.169Z,5.15
2019-05-06T17:12:53.680Z,5.20
2019-05-06T17:15:00.410Z,5.72
2019-05-06T17:17:06.807Z,5.62
2019-05-06T17:19:13.370Z,5.00
2019-05-06T17:21:22.265Z,4.50
2019-05-06T17:23:29.076Z,4.58
2019-05-06T17:25:35.668Z,5.42
2019-05-06T17:27:43.501Z,4.25
2019-05-06T17:29:51.686Z,4.87
2019-05-06T17:31:59.746Z,4.10
2019-05-06T17:34:14.123Z,4.37
2019-05-06T17:36:26.524Z,5.40
2019-05-06T17:38:35.183Z,5.67
2019-05-06T17:40:42.884Z,4.95
2019-05-06T17:42:49.516Z,5.70
2019-05-06T17:44:55.927Z,5.10
2019-05-06T17:47:16.471Z,5.92
2019-05-06T17:49:27.766Z,7.60
2019-05-06T17:51:42.555Z,11.88
2019-05-06T17:53:53.769Z,8.70
2019-05-06T17:56:01.825Z,7.87
2019-05-06T17:58:08.417Z,5.97
2019-05-06T18:00:16.778Z,4.87
2019-05-06T18:02:25.073Z,5.40
2019-05-06T18:04:34.447Z,4.95
2019-05-06T18:06:42.389Z,4.93
2019-05-06T18:08:48.862Z,4.90
2019-05-06T18:10:55.425Z,5.90
2019-05-06T18:13:03.157Z,6.75
2019-05-06T18:15:10.091Z,7.40
2019-05-06T18:17:16.575Z,8.10
2019-05-06T18:19:23.024Z,9.33
2019-05-06T18:21:29.481Z,9.20
2019-05-06T18:23:35.956Z,8.30
2019-05-06T18:25:43.050Z,8.03
2019-05-06T18:27:49.797Z,8.38
2019-05-06T18:30:04.337Z,8.18
2019-05-06T18:32:04.439Z,7.53
2019-05-06T18:34:12.835Z,6.45
2019-05-06T18:36:19.747Z,5.80
2019-05-06T18:38:26.301Z,5.50
2019-05-06T18:40:33.335Z,4.70
2019-05-06T18:42:39.816Z,4.28
2019-05-06T18:44:46.215Z,9.58
2019-05-06T18:46:54.130Z,4.72
2019-05-06T18:49:02.552Z,4.33
2019-05-06T18:51:08.977Z,4.22
2019-05-06T18:53:18.078Z,4.83
2019-05-06T18:55:24.549Z,5.67
2019-05-06T18:57:32.798Z,5.40
2019-05-06T19:01:45.628Z,6.70
2019-05-06T19:03:53.733Z,6.75
2019-05-06T19:06:02.192Z,6.25
2019-05-06T19:08:12.323Z,5.67
2019-05-06T19:10:34.717Z,4.37
2019-05-06T19:12:41.730Z,4.75
2019-05-06T19:14:48.302Z,5.53
2019-05-06T19:16:55.417Z,5.67
2019-05-06T19:19:05.804Z,5.78
2019-05-06T19:21:13.279Z,6.33
2019-05-06T19:23:19.278Z,6.53
2019-05-06T19:25:26.575Z,6.55
2019-05-06T19:27:33.677Z,7.03
2019-05-06T19:29:40.246Z,6.62
2019-05-06T19:31:46.626Z,7.55
2019-05-06T19:33:53.043Z,7.92
2019-05-06T19:35:59.498Z,7.75
2019-05-06T19:38:07.043Z,7.80
2019-05-06T19:40:14.142Z,8.20
2019-05-06T19:42:22.551Z,6.97
2019-05-06T19:44:29.249Z,7.22
2019-05-06T19:46:37.269Z,7.12
2019-05-06T19:48:43.793Z,6.85
2019-05-06T19:50:52.237Z,6.30
2019-05-06T19:52:58.377Z,6.27
2019-05-06T19:55:07.006Z,6.33
2019-05-06T19:57:15.929Z,5.53
2019-05-06T19:59:22.974Z,5.83
2019-05-06T20:01:29.437Z,6.08
2019-05-06T20:03:36.097Z,9.38
2019-05-06T20:05:54.218Z,7.55
2019-05-06T20:08:12.379Z,6.20
2019-05-06T20:10:37.770Z,4.45
2019-05-06T20:12:58.488Z,4.90
2019-05-06T20:14:52.565Z,6.87
2019-05-06T20:16:59.096Z,10.70
2019-05-06T20:19:05.914Z,7.45
2019-05-06T20:21:12.368Z,5.75
2019-05-06T20:23:18.763Z,4.87
2019-05-06T20:25:26.635Z,4.75
2019-05-06T20:27:33.011Z,4.90
2019-05-06T20:29:39.475Z,4.97
2019-05-06T20:31:48.682Z,5.47
2019-05-06T20:33:55.140Z,5.40
2019-05-06T20:36:01.527Z,5.00
2019-05-06T20:38:08.025Z,5.05
2019-05-06T20:40:14.905Z,4.80
2019-05-06T20:42:22.258Z,4.95
2019-05-06T20:44:28.668Z,5.17
2019-05-06T20:46:35.068Z,5.10
2019-05-06T20:48:42.197Z,5.30
2019-05-06T20:50:48.760Z,4.92
2019-05-06T20:52:55.151Z,5.30
2019-05-06T20:55:02.928Z,5.03
2019-05-06T20:57:09.599Z,5.08
2019-05-06T20:59:15.987Z,4.90
2019-05-06T21:01:22.386Z,5.45
2019-05-06T21:03:28.814Z,5.80
2019-05-06T21:05:35.204Z,4.85
2019-05-06T21:07:43.242Z,4.22
2019-05-06T21:09:49.801Z,4.97
2019-05-06T21:11:56.422Z,4.62
2019-05-06T21:14:03.134Z,5.25
2019-05-06T21:16:09.562Z,5.17
2019-05-06T21:18:15.940Z,5.70
2019-05-06T21:20:22.399Z,6.37
2019-05-06T21:22:28.940Z,5.95
2019-05-06T21:24:38.804Z,5.22
2019-05-06T21:26:46.454Z,5.78
2019-05-06T21:28:53.195Z,5.42
2019-05-06T21:30:59.637Z,5.25
2019-05-06T21:33:06.027Z,4.90
2019-05-06T21:35:12.748Z,5.17
2019-05-06T21:37:19.129Z,4.50
2019-05-06T21:39:25.659Z,4.20
2019-05-06T21:41:32.723Z,4.10
2019-05-06T21:43:46.960Z,4.53
2019-05-06T21:45:47.490Z,4.72
2019-05-06T21:47:53.924Z,4.60
2019-05-06T21:50:00.304Z,4.70
2019-05-06T21:52:06.812Z,4.67
2019-05-06T21:54:13.289Z,4.17
2019-05-06T21:56:19.663Z,4.67
2019-05-06T21:58:26.052Z,4.83
2019-05-06T22:00:49.469Z,5.08
2019-05-06T22:02:56.196Z,5.12
2019-05-06T22:05:02.883Z,4.87
2019-05-06T22:07:09.430Z,5.53
2019-05-06T22:09:15.988Z,5.17
2019-05-06T22:11:24.363Z,5.00
2019-05-06T22:13:32.542Z,4.75
2019-05-06T22:15:38.974Z,5.05
2019-05-06T22:17:45.428Z,4.90
2019-05-06T22:19:52.459Z,5.30
2019-05-06T22:22:03.554Z,5.70
2019-05-06T22:24:12.061Z,5.15
2019-05-06T22:26:18.198Z,5.03
2019-05-06T22:28:24.652Z,5.22
2019-05-06T22:30:32.849Z,5.58
2019-05-06T22:32:46.589Z,5.28
2019-05-06T22:34:53.101Z,5.15
2019-05-06T22:36:59.548Z,5.12
2019-05-06T22:39:07.679Z,5.35
2019-05-06T22:41:15.735Z,4.87
2019-05-06T22:43:22.180Z,5.65
2019-05-06T22:45:28.660Z,5.50
2019-05-06T22:47:35.051Z,5.72
2019-05-06T22:49:41.450Z,5.22
2019-05-06T22:51:47.866Z,5.22
2019-05-06T22:53:54.395Z,5.10
2019-05-06T22:56:03.153Z,5.35
2019-05-06T22:58:11.966Z,5.58
2019-05-06T23:00:25.734Z,5.25
2019-05-06T23:02:45.964Z,5.60
2019-05-06T23:04:54.032Z,5.33
2019-05-06T23:07:04.447Z,5.08
2019-05-06T23:09:10.265Z,4.95
2019-05-06T23:11:16.838Z,5.12
2019-05-06T23:13:23.406Z,5.17
2019-05-06T23:15:29.972Z,5.30
2019-05-06T23:17:36.375Z,5.28
2019-05-06T23:19:42.981Z,5.35
2019-05-06T23:21:49.418Z,5.30
2019-05-06T23:23:55.827Z,5.70
2019-05-06T23:26:19.072Z,4.95
2019-05-06T23:28:25.520Z,4.95
2019-05-06T23:30:33.402Z,5.25
2019-05-06T23:32:42.086Z,5.13
2019-05-06T23:34:48.186Z,4.90
2019-05-06T23:37:02.810Z,4.80
2019-05-06T23:40:05.891Z,4.58
2019-05-06T23:43:08.164Z,4.42
2019-05-06T23:46:09.202Z,4.55
2019-05-06T23:49:12.996Z,5.03
2019-05-06T23:52:13.901Z,4.40
2019-05-06T23:55:14.717Z,4.55
2019-05-06T23:57:22.567Z,4.78
2019-05-06T23:59:28.563Z,4.70
